Latest Weather Observations for Wattamolla

IDN60901

Issued at 10:51 pm EST Wednesday 12 August 2020 (issued every 10 minutes, with the page automatically refreshed every 10 minutes)

About weather observations | Map of Sydney area stations | Latest observations for Sydney area | Other Formats
Station Details ID: 066208 Name: WATTAMOLLA AWS Lat: -34.14 Lon: 151.12 Height: 44.0 m
Data from the previous 72 hours. | See also: Recent months at Wattamolla
Date/Time
EST
Temp
°C
App
Temp
°C
Dew
Point
°C
Rel
Hum
%
Delta-T
°C
Wind Press
QNH
hPa
Press
MSL
hPa
Rain since
9am
mm
Dir  Spd
km/h
Gust
km/h
Spd
kts
Gust
kts
12/10:30pm - - - - - WNW 13 17 7 9 - - -
12/10:00pm - - - - - NNW 11 17 6 9 - - -
12/09:30pm - - - - - SSE 11 17 6 9 - - -
12/09:00pm - - - - - SW 17 26 9 14 - - -
12/08:30pm - - - - - NNW 15 19 8 10 - - -
12/08:00pm - - - - - NW 11 15 6 8 - - -
12/07:30pm - - - - - NW 13 17 7 9 - - -
12/07:00pm - - - - - NNW 9 11 5 6 - - -
12/06:30pm - - - - - NNW 9 11 5 6 - - -
12/06:00pm - - - - - NW 13 13 7 7 - - -
12/05:30pm - - - - - NW 11 11 6 6 - - -
12/05:00pm - - - - - NW 11 13 6 7 - - -
12/04:30pm - - - - - NNW 7 9 4 5 - - -
12/04:00pm - - - - - NNW 7 11 4 6 - - -
12/03:30pm - - - - - NNW 11 15 6 8 - - -
12/03:00pm - - - - - NNW 7 9 4 5 - - -
12/02:30pm - - - - - NNW 9 15 5 8 - - -
12/02:00pm - - - - - NNW 11 15 6 8 - - -
12/01:30pm - - - - - NNW 15 22 8 12 - - -
12/01:00pm - - - - - NNW 11 17 6 9 - - -
12/12:30pm - - - - - N 15 22 8 12 - - -
12/12:00pm - - - - - N 20 28 11 15 - - -
12/11:30am - - - - - N 13 19 7 10 - - -
12/11:00am - - - - - N 11 15 6 8 - - -
12/10:30am - - - - - N 15 19 8 10 - - -
12/10:00am - - - - - N 17 22 9 12 - - -
12/09:30am - - - - - NNW 17 22 9 12 - - -
12/09:00am - - - - - NNW 13 19 7 10 - - -
12/08:30am - - - - - NNW 9 13 5 7 - - -
12/08:00am - - - - - NNW 11 15 6 8 - - -
12/07:30am - - - - - NNW 13 15 7 8 - - -
12/07:00am - - - - - NNW 11 15 6 8 - - -
12/06:30am - - - - - NW 9 11 5 6 - - -
12/06:00am - - - - - NW 11 17 6 9 - - -
12/05:30am - - - - - NW 13 19 7 10 - - -
12/05:00am - - - - - NW 9 15 5 8 - - -
12/04:30am - - - - - NW 13 19 7 10 - - -
12/04:00am - - - - - NW 13 19 7 10 - - -
12/03:30am - - - - - NW 13 19 7 10 - - -
12/03:00am - - - - - NW 13 19 7 10 - - -
12/02:30am - - - - - NW 13 19 7 10 - - -
12/02:00am - - - - - NNW 13 15 7 8 - - -
12/01:30am - - - - - NNW 17 20 9 11 - - -
12/01:00am - - - - - NNW 13 17 7 9 - - -
12/12:30am - - - - - NNW 15 20 8 11 - - -
12/12:00am - - - - - NNW 17 20 9 11 - - -
 
Date/Time
EST
Temp
°C
App
Temp
°C
Dew
Point
°C
Rel
Hum
%
Delta-T
°C
Wind Press
QNH
hPa
Press
MSL
hPa
Rain since
9am
mm
Dir  Spd
km/h
Gust
km/h
Spd
kts
Gust
kts
11/11:30pm - - - - - NNW 19 22 10 12 - - -
11/11:00pm - - - - - NNW 17 20 9 11 - - -
11/10:30pm - - - - - NNW 15 19 8 10 - - -
11/10:00pm - - - - - N 13 17 7 9 - - -
11/09:30pm - - - - - NNW 15 17 8 9 - - -
11/09:00pm - - - - - NNW 15 17 8 9 - - -
11/08:30pm - - - - - N 11 15 6 8 - - -
11/08:00pm - - - - - NNW 13 17 7 9 - - -
11/07:30pm - - - - - NW 13 15 7 8 - - -
11/07:00pm - - - - - NNW 11 13 6 7 - - -
11/06:30pm - - - - - NNW 11 13 6 7 - - -
11/06:00pm - - - - - NNE 11 15 6 8 - - -
11/05:30pm - - - - - NNE 11 17 6 9 - - -
11/05:00pm - - - - - NE 13 17 7 9 - - -
11/04:30pm - - - - - NE 13 17 7 9 - - -
11/04:00pm - - - - - ENE 11 15 6 8 - - -
11/03:30pm - - - - - E 9 13 5 7 - - -
11/03:00pm - - - - - ESE 9 13 5 7 - - -
11/02:30pm - - - - - SE 11 15 6 8 - - -
11/02:00pm - - - - - SE 11 17 6 9 - - -
11/01:30pm - - - - - SE 11 15 6 8 - - -
11/01:00pm - - - - - SSE 11 15 6 8 - - -
11/12:30pm - - - - - S 11 15 6 8 - - -
11/12:00pm - - - - - SSE 13 17 7 9 - - -
11/11:30am - - - - - SSE 13 15 7 8 - - -
11/11:00am - - - - - S 13 17 7 9 - - -
11/10:30am - - - - - S 13 17 7 9 - - -
11/10:00am - - - - - S 15 19 8 10 - - -
11/09:30am - - - - - SW 9 15 5 8 - - -
11/09:00am - - - - - SW 9 11 5 6 - - -
11/08:30am - - - - - SW 9 13 5 7 - - -
11/08:00am - - - - - SW 7 9 4 5 - - -
11/07:30am - - - - - W 11 15 6 8 - - -
11/07:00am - - - - - W 13 17 7 9 - - -
11/06:30am - - - - - SW 13 19 7 10 - - -
11/06:00am - - - - - S 15 26 8 14 - - -
11/05:30am - - - - - WSW 13 19 7 10 - - -
11/05:00am - - - - - W 13 19 7 10 - - -
11/04:30am - - - - - W 15 24 8 13 - - -
11/04:00am - - - - - S 20 33 11 18 - - -
11/03:30am - - - - - S 33 41 18 22 - - -
11/03:00am - - - - - S 33 39 18 21 - - -
11/02:30am - - - - - SSE 28 39 15 21 - - -
11/02:00am - - - - - SSE 26 39 14 21 - - -
11/01:30am - - - - - SSE 30 39 16 21 - - -
11/01:00am - - - - - SSE 33 46 18 25 - - -
11/12:30am - - - - - S 35 46 19 25 - - -
11/12:00am - - - - - SSE 30 41 16 22 - - -
 
Date/Time
EST
Temp
°C
App
Temp
°C
Dew
Point
°C
Rel
Hum
%
Delta-T
°C
Wind Press
QNH
hPa
Press
MSL
hPa
Rain since
9am
mm
Dir  Spd
km/h
Gust
km/h
Spd
kts
Gust
kts
10/11:30pm - - - - - S 30 43 16 23 - - -
10/11:00pm - - - - - S 41 48 22 26 - - -
10/10:30pm - - - - - SSE 33 46 18 25 - - -
10/10:00pm - - - - - SSW 22 35 12 19 - - -
10/09:30pm - - - - - SSW 22 35 12 19 - - -
10/09:13pm - - - - - S 33 48 18 26 - - -
10/09:00pm - - - - - S 39 48 21 26 - - -
10/08:33pm - - - - - S 28 52 15 28 - - -
10/08:30pm - - - - - S 24 52 13 28 - - -
10/08:17pm - - - - - S 28 50 15 27 - - -
10/08:00pm - - - - - S 37 50 20 27 - - -
10/07:30pm - - - - - S 17 52 9 28 - - -
10/07:02pm - - - - - S 32 50 17 27 - - -
10/07:00pm - - - - - S 33 50 18 27 - - -
10/06:53pm - - - - - S 30 50 16 27 - - -
10/06:30pm - - - - - S 26 50 14 27 - - -
10/06:04pm - - - - - S 17 52 9 28 - - -
10/06:00pm - - - - - SSE 9 50 5 27 - - -
10/05:30pm - - - - - - 15 50 8 27 - - -
10/05:00pm - - - - - SSE 28 48 15 26 - - -
10/04:55pm - - - - - SSE 20 48 11 26 - - -
10/04:30pm - - - - - SSE 4 46 2 25 - - -
10/04:00pm - - - - - SSE 6 48 3 26 - - -
10/03:30pm - - - - - CALM 0 20 0 11 - - -
10/03:00pm - - - - - SSE 2 43 1 23 - - -
10/02:30pm - - - - - SSE 2 41 1 22 - - -
10/02:00pm - - - - - SSE 2 41 1 22 - - -
10/01:30pm - - - - - SSE 2 46 1 25 - - -
10/01:00pm - - - - - SSE 2 41 1 22 - - -
10/12:30pm - - - - - SSE 24 61 13 33 - - -
10/12:26pm - - - - - SSE 17 59 9 32 - - -
10/12:00pm - - - - - SSE 9 57 5 31 - - -
10/11:30am - - - - - SSE 11 57 6 31 - - -
10/11:00am - - - - - SSE 7 57 4 31 - - -
10/10:31am - - - - - SSE 17 59 9 32 - - -
10/10:30am - - - - - SSE 15 59 8 32 - - -
10/10:00am - - - - - SSE 9 57 5 31 - - -
10/09:30am - - - - - SSE 13 57 7 31 - - -
10/09:00am - - - - - SSE 9 52 5 28 - - -
10/08:30am - - - - - SSE 4 48 2 26 - - -
10/08:00am - - - - - SSE 4 46 2 25 - - -
10/07:30am - - - - - SSE 4 50 2 27 - - -
10/07:00am - - - - - SSE 7 48 4 26 - - -
10/06:30am - - - - - SSE 4 48 2 26 - - -
10/06:00am - - - - - SSE 6 50 3 27 - - -
10/05:30am - - - - - SSE 6 46 3 25 - - -
10/05:00am - - - - - SSE 4 48 2 26 - - -
10/04:30am - - - - - SSE 7 50 4 27 - - -
10/04:00am - - - - - SSE 4 52 2 28 - - -
10/03:30am - - - - - SSE 7 48 4 26 - - -
10/03:00am - - - - - SSE 4 52 2 28 - - -
10/02:30am - - - - - SSE 6 48 3 26 - - -
10/02:00am - - - - - SSE 6 46 3 25 - - -
10/01:32am - - - - - SSE 22 63 12 34 - - -
10/01:30am - - - - - SSE 22 63 12 34 - - -
10/01:00am - - - - - SSE 33 63 18 34 - - -
10/12:34am - - - - - SSE 30 63 16 34 - - -
10/12:30am - - - - - SSE 32 63 17 34 - - -
10/12:00am - - - - - SSE 41 63 22 34 - - -
 
Date/Time
EST
Temp
°C
App
Temp
°C
Dew
Point
°C
Rel
Hum
%
Delta-T
°C
Wind Press
QNH
hPa
Press
MSL
hPa
Rain since
9am
mm
Dir  Spd
km/h
Gust
km/h
Spd
kts
Gust
kts
09/11:51pm - - - - - SSE 43 63 23 34 - - -
09/11:30pm - - - - - SSE 48 63 26 34 - - -
09/11:10pm - - - - - SSE 43 61 23 33 - - -
09/11:00pm - - - - - SSE 48 61 26 33 - - -

Latest Capital City Observations: Canberra | Sydney | Melbourne | Brisbane | Adelaide | Perth | Hobart | Darwin

Other formats

Comma delimited format used in spreadsheet applications
http://www.bom.gov.au/fwo/IDN60901/IDN60901.95752.axf

JavaScript Object Notation format (JSON) in row-major order
http://www.bom.gov.au/fwo/IDN60901/IDN60901.95752.json

Data quality

Most of these data are generated automatically and are frequently updated. Quality checks on data are not normally performed. It is possible for incorrect values to appear. Refer to information at About Latest Weather Observations and please check the disclaimer before using these data.